createdAt,value
2017-11-19T00:01:08.372Z,10.18
2017-11-19T00:03:36.138Z,10.40
2017-11-19T00:06:03.933Z,8.75
2017-11-19T00:08:31.775Z,10.35
2017-11-19T00:10:59.555Z,9.98
2017-11-19T00:13:27.313Z,10.70
2017-11-19T00:15:55.132Z,11.48
2017-11-19T00:18:22.889Z,8.95
2017-11-19T00:20:50.702Z,10.88
2017-11-19T00:23:18.530Z,10.23
2017-11-19T00:25:46.313Z,11.00
2017-11-19T00:28:14.089Z,11.80
2017-11-19T00:30:41.930Z,10.85
2017-11-19T00:33:09.727Z,9.63
2017-11-19T00:35:37.495Z,11.60
2017-11-19T00:38:05.329Z,12.85
2017-11-19T00:40:33.099Z,9.98
2017-11-19T00:43:00.856Z,9.60
2017-11-19T00:45:28.674Z,10.88
2017-11-19T00:47:57.199Z,10.55
2017-11-19T00:50:24.957Z,11.27
2017-11-19T00:52:52.772Z,11.07
2017-11-19T00:55:21.293Z,11.05
2017-11-19T00:57:49.053Z,9.85
2017-11-19T01:00:16.944Z,10.40
2017-11-19T01:02:44.734Z,10.68
2017-11-19T01:05:19.858Z,10.07
2017-11-19T01:07:47.628Z,10.07
2017-11-19T01:10:16.158Z,10.57
2017-11-19T01:12:43.973Z,9.55
2017-11-19T01:15:12.493Z,8.45
2017-11-19T01:17:40.269Z,8.63
2017-11-19T01:20:08.097Z,8.07
2017-11-19T01:22:35.873Z,8.85
2017-11-19T01:25:03.629Z,8.27
2017-11-19T01:27:31.441Z,7.78
2017-11-19T01:29:59.219Z,10.40
2017-11-19T01:32:27.768Z,30.60
2017-11-19T01:34:55.592Z,27.58
2017-11-19T01:37:23.374Z,21.05
2017-11-19T01:39:51.135Z,9.05
2017-11-19T01:42:18.965Z,10.55
2017-11-19T01:44:46.744Z,11.45
2017-11-19T01:47:14.506Z,10.30
2017-11-19T01:49:42.337Z,11.68
2017-11-19T01:52:10.883Z,13.80
2017-11-19T01:54:38.671Z,8.35
2017-11-19T01:57:07.286Z,12.50
2017-11-19T01:59:35.058Z,7.68
2017-11-19T02:02:02.813Z,8.63
2017-11-19T02:04:30.629Z,7.03
2017-11-19T02:06:58.392Z,5.95
2017-11-19T02:09:26.153Z,7.47
2017-11-19T02:11:54.166Z,7.05
2017-11-19T02:14:21.932Z,6.78
2017-11-19T02:16:49.685Z,6.75
2017-11-19T02:19:17.508Z,6.70
2017-11-19T02:21:45.307Z,7.05
2017-11-19T02:24:13.090Z,7.97
2017-11-19T02:26:40.901Z,6.95
2017-11-19T02:29:08.657Z,6.43
2017-11-19T02:31:36.429Z,7.05
2017-11-19T02:34:05.010Z,7.10
2017-11-19T02:36:32.764Z,6.32
2017-11-19T02:39:00.524Z,8.25
2017-11-19T02:41:28.329Z,7.20
2017-11-19T02:43:56.091Z,8.95
2017-11-19T02:46:23.870Z,7.47
2017-11-19T02:48:51.694Z,7.47
2017-11-19T02:51:19.493Z,11.73
2017-11-19T02:53:47.255Z,9.68
2017-11-19T02:56:15.081Z,11.20
2017-11-19T02:58:43.610Z,7.68
2017-11-19T03:01:11.372Z,9.43
2017-11-19T03:03:39.193Z,7.43
2017-11-19T03:06:07.735Z,11.05
2017-11-19T03:08:35.509Z,10.05
2017-11-19T03:11:04.118Z,8.40
2017-11-19T03:13:31.894Z,9.07
2017-11-19T03:15:59.656Z,6.68
2017-11-19T03:18:27.477Z,8.50
2017-11-19T03:20:55.253Z,6.45
2017-11-19T03:23:23.799Z,6.45
2017-11-19T03:25:52.376Z,6.68
2017-11-19T03:28:20.932Z,6.45
2017-11-19T03:30:48.696Z,7.87
2017-11-19T03:33:16.524Z,7.22
2017-11-19T03:35:45.049Z,6.60
2017-11-19T03:38:12.810Z,6.80
2017-11-19T03:40:40.636Z,7.37
2017-11-19T03:43:08.387Z,6.25
2017-11-19T03:45:36.929Z,6.68
2017-11-19T03:48:04.753Z,6.65
2017-11-19T03:50:32.523Z,5.95
2017-11-19T03:53:00.291Z,4.75
2017-11-19T03:55:28.126Z,4.22
2017-11-19T03:57:55.888Z,5.60
2017-11-19T04:00:24.405Z,4.53
2017-11-19T04:02:52.219Z,4.45
2017-11-19T04:05:20.735Z,3.80
2017-11-19T04:07:48.497Z,4.55
2017-11-19T04:10:16.308Z,4.15
2017-11-19T04:12:44.077Z,3.90
2017-11-19T04:15:12.597Z,4.47
2017-11-19T04:17:40.407Z,3.95
2017-11-19T04:20:08.165Z,4.00
2017-11-19T04:22:35.937Z,4.05
2017-11-19T04:25:04.582Z,3.62
2017-11-19T04:27:32.361Z,3.05
2017-11-19T04:30:00.113Z,3.28
2017-11-19T04:32:27.926Z,2.75
2017-11-19T04:34:56.460Z,3.62
2017-11-19T04:37:24.245Z,2.85
2017-11-19T04:39:52.058Z,3.28
2017-11-19T04:42:19.854Z,3.75
2017-11-19T04:44:49.039Z,2.95
2017-11-19T04:47:16.871Z,3.00
2017-11-19T04:49:44.637Z,2.70
2017-11-19T04:52:12.390Z,3.00
2017-11-19T04:54:40.205Z,3.33
2017-11-19T04:57:07.956Z,5.12
2017-11-19T04:59:35.722Z,3.30
2017-11-19T05:02:03.547Z,3.55
2017-11-19T05:04:31.306Z,4.20
2017-11-19T05:06:59.065Z,4.22
2017-11-19T05:09:26.882Z,3.62
2017-11-19T05:11:54.637Z,3.70
2017-11-19T05:14:22.386Z,3.85
2017-11-19T05:16:50.205Z,3.87
2017-11-19T05:19:17.965Z,4.28
2017-11-19T05:21:45.722Z,3.10
2017-11-19T05:24:13.543Z,3.85
2017-11-19T05:26:41.293Z,3.72
2017-11-19T05:29:09.054Z,4.72
2017-11-19T05:31:36.877Z,3.67
2017-11-19T05:34:04.661Z,5.70
2017-11-19T05:36:32.447Z,3.20
2017-11-19T05:39:00.269Z,3.65
2017-11-19T05:41:28.047Z,3.97
2017-11-19T05:43:55.808Z,3.62
2017-11-19T05:46:23.620Z,3.50
2017-11-19T05:48:52.149Z,4.20
2017-11-19T05:51:19.912Z,3.20
2017-11-19T05:53:47.733Z,4.00
2017-11-19T05:56:16.267Z,4.53
2017-11-19T05:58:44.038Z,3.95
2017-11-19T06:01:11.863Z,3.17
2017-11-19T06:03:39.627Z,5.05
2017-11-19T06:06:07.390Z,3.10
2017-11-19T06:08:35.648Z,3.30
2017-11-19T06:11:03.411Z,3.40
2017-11-19T06:13:31.178Z,3.65
2017-11-19T06:15:59.007Z,4.35
2017-11-19T06:18:26.778Z,4.35
2017-11-19T06:20:55.319Z,4.85
2017-11-19T06:23:23.147Z,3.80
2017-11-19T06:25:50.910Z,4.50
2017-11-19T06:28:18.667Z,4.65
2017-11-19T06:30:46.514Z,4.57
2017-11-19T06:33:15.046Z,4.20
2017-11-19T06:35:42.812Z,4.43
2017-11-19T06:38:10.623Z,3.97
2017-11-19T06:40:39.150Z,4.55
2017-11-19T06:43:06.914Z,3.70
2017-11-19T06:45:34.745Z,5.18
2017-11-19T06:48:02.522Z,4.50
2017-11-19T06:50:30.298Z,4.53
2017-11-19T06:52:58.169Z,5.93
2017-11-19T06:55:25.925Z,5.22
2017-11-19T06:57:53.689Z,5.97
2017-11-19T07:00:21.565Z,4.70
2017-11-19T07:02:49.330Z,4.72
2017-11-19T07:05:17.093Z,5.37
2017-11-19T07:07:44.915Z,5.60
2017-11-19T07:10:12.675Z,5.03
2017-11-19T07:12:40.488Z,5.00
2017-11-19T07:15:08.344Z,5.03
2017-11-19T07:17:36.155Z,6.18
2017-11-19T07:20:03.951Z,5.05
2017-11-19T07:22:31.787Z,6.00
2017-11-19T07:24:59.554Z,6.15
2017-11-19T07:27:27.372Z,7.45
2017-11-19T07:29:55.220Z,5.45
2017-11-19T07:32:23.018Z,4.53
2017-11-19T07:34:51.548Z,5.57
2017-11-19T07:37:19.363Z,4.62
2017-11-19T07:39:47.901Z,4.10
2017-11-19T07:42:15.656Z,4.25
2017-11-19T07:44:44.229Z,4.28
2017-11-19T07:47:12.003Z,4.32
2017-11-19T07:49:39.750Z,4.90
2017-11-19T07:52:07.577Z,3.95
2017-11-19T07:54:35.369Z,4.25
2017-11-19T07:57:03.133Z,4.40
2017-11-19T07:59:30.984Z,4.10
2017-11-19T08:01:58.737Z,4.60
2017-11-19T08:04:26.483Z,3.72
2017-11-19T08:06:55.201Z,4.75
2017-11-19T08:09:22.959Z,3.97
2017-11-19T08:11:50.735Z,4.20
2017-11-19T08:14:18.565Z,4.07
2017-11-19T08:16:46.457Z,4.05
2017-11-19T08:19:14.300Z,3.87
2017-11-19T08:21:42.108Z,4.10
2017-11-19T08:24:09.866Z,3.90
2017-11-19T08:26:37.615Z,4.15
2017-11-19T08:29:06.221Z,4.45
2017-11-19T08:31:34.004Z,4.57
2017-11-19T08:34:01.830Z,4.82
2017-11-19T08:36:30.456Z,4.45
2017-11-19T08:38:58.213Z,3.58
2017-11-19T08:41:26.758Z,4.03
2017-11-19T08:43:54.629Z,6.57
2017-11-19T08:46:23.193Z,4.25
2017-11-19T08:48:50.963Z,4.25
2017-11-19T08:51:18.785Z,4.47
2017-11-19T08:53:46.571Z,6.00
2017-11-19T08:56:14.346Z,5.05
2017-11-19T08:58:42.166Z,4.00
2017-11-19T09:01:09.953Z,3.37
2017-11-19T09:03:37.732Z,4.10
2017-11-19T09:06:05.629Z,4.30
2017-11-19T09:08:34.174Z,4.45
2017-11-19T09:11:02.076Z,4.30
2017-11-19T09:13:30.774Z,3.80
2017-11-19T09:15:58.534Z,3.80
2017-11-19T09:18:26.326Z,4.32
2017-11-19T09:20:54.173Z,4.50
2017-11-19T09:23:21.982Z,4.80
2017-11-19T09:25:49.766Z,4.40
2017-11-19T09:28:18.376Z,3.85
2017-11-19T09:30:46.155Z,4.75
2017-11-19T09:33:13.923Z,4.28
2017-11-19T09:35:41.741Z,4.40
2017-11-19T09:38:10.292Z,3.72
2017-11-19T09:40:38.052Z,3.80
2017-11-19T09:43:05.870Z,4.60
2017-11-19T09:45:33.700Z,4.65
2017-11-19T09:48:02.259Z,4.50
2017-11-19T09:50:30.149Z,5.55
2017-11-19T09:52:58.679Z,3.78
2017-11-19T09:55:26.487Z,3.45
2017-11-19T09:57:55.074Z,3.67
2017-11-19T10:00:23.610Z,3.40
2017-11-19T10:02:51.616Z,3.40
2017-11-19T10:05:20.215Z,3.72
2017-11-19T10:07:47.985Z,3.67
2017-11-19T10:10:15.745Z,4.07
2017-11-19T10:12:43.600Z,5.10
2017-11-19T10:15:12.128Z,3.47
2017-11-19T10:17:39.883Z,3.45
2017-11-19T10:20:07.701Z,5.37
2017-11-19T10:22:36.233Z,3.87
2017-11-19T10:25:03.992Z,4.45
2017-11-19T10:27:31.810Z,4.30
2017-11-19T10:30:00.341Z,3.45
2017-11-19T10:32:28.110Z,3.80
2017-11-19T10:34:55.932Z,3.60
2017-11-19T10:37:23.689Z,3.70
2017-11-19T10:39:51.453Z,3.80
2017-11-19T10:42:19.322Z,4.10
2017-11-19T10:44:47.086Z,3.75
2017-11-19T10:47:14.845Z,3.50
2017-11-19T10:49:42.677Z,3.75
2017-11-19T10:52:11.203Z,4.00
2017-11-19T10:54:38.966Z,2.47
2017-11-19T10:57:06.796Z,2.80
2017-11-19T10:59:34.554Z,3.03
2017-11-19T11:02:02.324Z,4.03
2017-11-19T11:04:30.135Z,3.87
2017-11-19T11:06:57.899Z,3.50
2017-11-19T11:09:25.672Z,3.85
2017-11-19T11:11:53.499Z,3.15
2017-11-19T11:14:21.277Z,3.40
2017-11-19T11:16:49.040Z,3.10
2017-11-19T11:19:16.877Z,3.03
2017-11-19T11:21:44.636Z,3.78
2017-11-19T11:24:12.405Z,2.40
2017-11-19T11:26:40.242Z,3.53
2017-11-19T11:29:08.006Z,2.92
2017-11-19T11:31:35.773Z,2.75
2017-11-19T11:34:03.599Z,4.18
2017-11-19T11:36:31.382Z,7.90
2017-11-19T11:38:59.910Z,4.15
2017-11-19T11:41:27.814Z,5.37
2017-11-19T11:43:56.342Z,8.05
2017-11-19T11:46:24.115Z,8.05
2017-11-19T11:48:51.957Z,6.10
2017-11-19T11:51:19.716Z,7.75
2017-11-19T11:53:47.514Z,8.15
2017-11-19T11:56:15.378Z,11.02
2017-11-19T11:58:43.239Z,6.47
2017-11-19T12:01:11.008Z,5.43
2017-11-19T12:03:38.857Z,8.27
2017-11-19T12:06:06.637Z,5.53
2017-11-19T12:08:34.703Z,5.07
2017-11-19T12:11:02.551Z,5.30
2017-11-19T12:13:30.319Z,5.18
2017-11-19T12:15:58.090Z,4.47
2017-11-19T12:18:26.555Z,4.87
2017-11-19T12:20:54.318Z,3.65
2017-11-19T12:23:22.084Z,3.87
2017-11-19T12:25:49.907Z,3.50
2017-11-19T12:28:17.721Z,3.20
2017-11-19T12:30:45.508Z,4.47
2017-11-19T12:33:14.141Z,4.90
2017-11-19T12:35:41.923Z,3.65
2017-11-19T12:38:09.745Z,4.35
2017-11-19T12:40:49.384Z,3.60
2017-11-19T12:43:18.069Z,4.30
2017-11-19T12:45:45.858Z,4.15
2017-11-19T12:48:13.761Z,4.00
2017-11-19T12:50:42.441Z,4.57
2017-11-19T12:53:10.195Z,4.03
2017-11-19T12:55:38.034Z,3.50
2017-11-19T12:58:05.804Z,3.92
2017-11-19T13:00:33.589Z,4.55
2017-11-19T13:03:02.181Z,3.67
2017-11-19T13:05:30.753Z,2.90
2017-11-19T13:07:59.290Z,4.35
2017-11-19T13:10:27.117Z,3.83
2017-11-19T13:12:54.877Z,4.05
2017-11-19T13:15:22.651Z,4.68
2017-11-19T13:17:50.477Z,3.53
2017-11-19T13:20:18.258Z,4.15
2017-11-19T13:22:46.060Z,6.28
2017-11-19T13:25:13.879Z,4.07
2017-11-19T13:27:42.464Z,4.25
2017-11-19T13:30:10.254Z,4.45
2017-11-19T13:32:38.078Z,4.55
2017-11-19T13:35:06.648Z,4.70
2017-11-19T13:37:35.190Z,3.60
2017-11-19T13:40:03.037Z,4.60
2017-11-19T13:42:31.565Z,5.20
2017-11-19T13:44:59.329Z,5.22
2017-11-19T13:47:27.166Z,6.07
2017-11-19T13:49:54.942Z,4.87
2017-11-19T13:52:22.714Z,5.20
2017-11-19T13:54:50.545Z,5.60
2017-11-19T13:57:18.321Z,6.00
2017-11-19T13:59:46.098Z,5.60
2017-11-19T14:02:14.509Z,5.45
2017-11-19T14:04:43.100Z,5.47
2017-11-19T14:07:11.698Z,5.28
2017-11-19T14:09:39.526Z,4.80
2017-11-19T14:12:08.061Z,4.62
2017-11-19T14:14:35.826Z,5.55
2017-11-19T14:17:03.653Z,4.82
2017-11-19T14:19:31.440Z,4.78
2017-11-19T14:21:59.219Z,4.70
2017-11-19T14:24:27.800Z,5.82
2017-11-19T14:26:55.569Z,4.75
2017-11-19T14:29:23.332Z,5.55
2017-11-19T14:31:51.153Z,5.30
2017-11-19T14:34:18.926Z,6.50
2017-11-19T14:36:46.688Z,4.30
2017-11-19T14:39:14.531Z,5.97
2017-11-19T14:41:42.291Z,5.95
2017-11-19T14:44:10.065Z,5.97
2017-11-19T14:46:37.886Z,5.93
2017-11-19T14:49:06.422Z,5.20
2017-11-19T14:51:34.192Z,7.50
2017-11-19T14:54:02.026Z,7.32
2017-11-19T14:56:29.792Z,6.12
2017-11-19T14:58:57.564Z,7.68
2017-11-19T15:01:25.417Z,7.60
2017-11-19T15:03:53.197Z,7.57
2017-11-19T15:06:20.981Z,6.70
2017-11-19T15:08:48.844Z,7.40
2017-11-19T15:11:16.650Z,6.07
2017-11-19T15:13:45.185Z,7.20
2017-11-19T15:16:13.029Z,6.40
2017-11-19T15:18:40.795Z,7.30
2017-11-19T15:21:08.563Z,6.50
2017-11-19T15:23:36.402Z,6.07
2017-11-19T15:26:04.191Z,6.80
2017-11-19T15:28:31.966Z,6.55
2017-11-19T15:30:59.784Z,6.47
2017-11-19T15:33:27.567Z,6.35
2017-11-19T15:35:55.332Z,7.37
2017-11-19T15:38:23.171Z,8.13
2017-11-19T15:40:50.929Z,7.03
2017-11-19T15:43:18.698Z,7.22
2017-11-19T15:45:46.530Z,8.18
2017-11-19T15:48:15.082Z,10.75
2017-11-19T15:50:42.844Z,7.12
2017-11-19T15:53:10.661Z,7.05
2017-11-19T15:55:38.444Z,5.55
2017-11-19T15:58:06.200Z,4.45
2017-11-19T16:00:34.023Z,5.80
2017-11-19T16:03:02.641Z,7.75
2017-11-19T16:05:30.413Z,5.40
2017-11-19T16:07:58.232Z,7.47
2017-11-19T16:10:26.755Z,6.35
2017-11-19T16:12:54.508Z,6.80
2017-11-19T16:15:22.338Z,7.10
2017-11-19T16:17:50.862Z,5.45
2017-11-19T16:20:18.632Z,5.55
2017-11-19T16:22:46.463Z,5.25
2017-11-19T16:25:14.223Z,5.40
2017-11-19T16:27:41.992Z,4.80
2017-11-19T16:30:09.819Z,5.20
2017-11-19T16:32:38.348Z,5.00
2017-11-19T16:35:06.123Z,5.15
2017-11-19T16:37:33.946Z,7.00
2017-11-19T16:40:01.735Z,4.47
2017-11-19T16:42:29.508Z,4.50
2017-11-19T16:44:57.324Z,5.30
2017-11-19T16:47:25.853Z,4.50
2017-11-19T16:49:53.618Z,4.20
2017-11-19T16:52:21.446Z,4.32
2017-11-19T16:54:49.982Z,4.45
2017-11-19T16:57:17.744Z,4.95
2017-11-19T16:59:45.576Z,6.18
2017-11-19T17:02:13.364Z,4.97
2017-11-19T17:04:41.926Z,5.32
2017-11-19T17:07:09.797Z,5.47
2017-11-19T17:09:37.596Z,6.00
2017-11-19T17:12:06.181Z,4.87
2017-11-19T17:14:34.070Z,4.65
2017-11-19T17:17:01.912Z,4.68
2017-11-19T17:19:29.715Z,5.50
2017-11-19T17:21:57.535Z,4.78
2017-11-19T17:24:26.065Z,5.18
2017-11-19T17:26:54.152Z,5.03
2017-11-19T17:29:22.125Z,4.78
2017-11-19T17:31:50.729Z,4.93
2017-11-19T17:34:19.279Z,4.45
2017-11-19T17:36:47.987Z,4.35
2017-11-19T17:39:16.528Z,4.87
2017-11-19T17:41:44.378Z,5.55
2017-11-19T17:44:12.207Z,5.15
2017-11-19T17:46:39.980Z,5.93
2017-11-19T17:49:07.774Z,6.57
2017-11-19T17:51:35.647Z,10.00
2017-11-19T17:54:03.445Z,8.40
2017-11-19T17:56:31.982Z,7.43
2017-11-19T17:58:59.811Z,7.90
2017-11-19T18:01:27.584Z,5.75
2017-11-19T18:03:55.372Z,9.80
2017-11-19T18:06:23.219Z,6.97
2017-11-19T18:08:50.996Z,6.95
2017-11-19T18:11:18.756Z,7.35
2017-11-19T18:13:46.571Z,5.40
2017-11-19T18:16:15.099Z,5.55
2017-11-19T18:18:42.862Z,4.55
2017-11-19T18:21:10.672Z,5.10
2017-11-19T18:23:39.225Z,5.72
2017-11-19T18:26:06.987Z,5.03
2017-11-19T18:28:34.804Z,5.25
2017-11-19T18:31:02.618Z,4.90
2017-11-19T18:33:30.395Z,4.93
2017-11-19T18:35:58.982Z,4.78
2017-11-19T18:38:27.517Z,6.93
2017-11-19T18:40:55.287Z,4.68
2017-11-19T18:43:23.144Z,5.75
2017-11-19T18:45:50.916Z,5.60
2017-11-19T18:48:18.671Z,6.28
2017-11-19T18:50:46.494Z,5.30
2017-11-19T18:53:14.255Z,5.35
2017-11-19T18:55:42.054Z,5.22
2017-11-19T18:58:09.883Z,5.60
2017-11-19T19:00:37.663Z,5.03
2017-11-19T19:03:05.503Z,5.80
2017-11-19T19:05:33.352Z,5.97
2017-11-19T19:08:01.148Z,6.68
2017-11-19T19:10:29.681Z,5.22
2017-11-19T19:12:58.354Z,6.28
2017-11-19T19:15:26.684Z,6.50
2017-11-19T19:17:54.446Z,5.72
2017-11-19T19:20:22.283Z,6.55
2017-11-19T19:22:50.050Z,5.10
2017-11-19T19:25:17.816Z,6.78
2017-11-19T19:27:45.654Z,5.50
2017-11-19T19:30:14.243Z,7.85
2017-11-19T19:32:42.038Z,6.07
2017-11-19T19:35:09.860Z,5.87
2017-11-19T19:37:39.557Z,5.22
2017-11-19T19:40:07.556Z,5.65
2017-11-19T19:42:35.989Z,5.25
2017-11-19T19:45:03.812Z,5.75
2017-11-19T19:47:31.589Z,5.40
2017-11-19T19:49:59.426Z,3.67
2017-11-19T19:52:27.283Z,2.95
2017-11-19T19:54:55.064Z,2.37
2017-11-19T19:57:22.880Z,2.72
2017-11-19T19:59:51.417Z,1.12
2017-11-19T20:02:19.192Z,1.50
2017-11-19T20:04:47.091Z,0.98
2017-11-19T20:07:15.632Z,1.60
2017-11-19T20:09:43.417Z,1.90
2017-11-19T20:12:11.248Z,1.65
2017-11-19T20:14:39.005Z,3.00
2017-11-19T20:17:06.792Z,3.12
2017-11-19T20:19:34.600Z,3.20
2017-11-19T20:22:03.196Z,3.08
2017-11-19T20:24:30.964Z,2.85
2017-11-19T20:26:58.930Z,4.03
2017-11-19T20:29:26.759Z,3.83
2017-11-19T20:31:55.281Z,4.00
2017-11-19T20:34:24.252Z,2.83
2017-11-19T20:36:52.082Z,4.40
2017-11-19T20:39:20.620Z,3.10
2017-11-19T20:41:48.443Z,3.42
2017-11-19T20:44:16.981Z,4.60
2017-11-19T20:46:44.781Z,4.87
2017-11-19T20:49:13.380Z,4.35
2017-11-19T20:51:41.188Z,2.53
2017-11-19T20:54:09.020Z,3.97
2017-11-19T20:56:36.843Z,3.75
2017-11-19T20:59:04.605Z,3.53
2017-11-19T21:01:32.413Z,3.03
2017-11-19T21:04:00.247Z,3.65
2017-11-19T21:06:28.765Z,2.30
2017-11-19T21:08:56.558Z,3.20
2017-11-19T21:11:24.395Z,2.00
2017-11-19T21:13:52.172Z,2.35
2017-11-19T21:16:19.927Z,2.80
2017-11-19T21:18:47.770Z,1.23
2017-11-19T21:21:15.575Z,1.73
2017-11-19T21:23:43.332Z,1.85
2017-11-19T21:26:11.143Z,2.30
2017-11-19T21:28:39.050Z,1.67
2017-11-19T21:31:07.592Z,1.85
2017-11-19T21:33:35.453Z,1.45
2017-11-19T21:36:03.208Z,2.03
2017-11-19T21:38:31.718Z,1.80
2017-11-19T21:40:59.532Z,1.87
2017-11-19T21:43:27.318Z,2.08
2017-11-19T21:45:55.085Z,2.00
2017-11-19T21:48:22.885Z,3.03
2017-11-19T21:50:50.656Z,3.90
2017-11-19T21:53:18.419Z,2.55
2017-11-19T21:55:46.337Z,2.22
2017-11-19T21:58:14.109Z,2.55
2017-11-19T22:00:41.861Z,4.57
2017-11-19T22:03:09.892Z,6.40
2017-11-19T22:05:38.408Z,10.95
2017-11-19T22:08:06.161Z,6.62
2017-11-19T22:10:33.978Z,13.40
2017-11-19T22:13:01.730Z,7.30
2017-11-19T22:15:29.493Z,11.38
2017-11-19T22:17:57.350Z,10.77
2017-11-19T22:20:25.116Z,18.12
2017-11-19T22:22:52.873Z,14.27
2017-11-19T22:25:20.698Z,7.22
2017-11-19T22:27:48.482Z,8.60
2017-11-19T22:30:16.241Z,11.15
2017-11-19T22:32:44.044Z,7.78
2017-11-19T22:35:11.788Z,5.22
2017-11-19T22:37:39.553Z,5.65
2017-11-19T22:40:07.358Z,5.22
2017-11-19T22:42:35.108Z,4.47
2017-11-19T22:45:03.631Z,7.10
2017-11-19T22:47:31.437Z,4.85
2017-11-19T22:49:59.184Z,4.00
2017-11-19T22:52:26.939Z,5.97
2017-11-19T22:54:54.754Z,6.07
2017-11-19T22:57:22.516Z,4.95
2017-11-19T22:59:50.280Z,4.53
2017-11-19T23:02:18.097Z,5.50
2017-11-19T23:04:45.853Z,4.60
2017-11-19T23:07:13.611Z,5.05
2017-11-19T23:09:41.421Z,4.95
2017-11-19T23:12:09.183Z,4.85
2017-11-19T23:14:36.947Z,4.07
2017-11-19T23:17:04.764Z,4.72
2017-11-19T23:19:32.507Z,3.45
2017-11-19T23:22:00.284Z,3.22
2017-11-19T23:24:28.094Z,2.90
2017-11-19T23:26:55.844Z,3.35
2017-11-19T23:29:24.447Z,6.37
2017-11-19T23:31:52.346Z,12.75
2017-11-19T23:34:20.165Z,4.85
2017-11-19T23:36:47.918Z,4.95
2017-11-19T23:39:15.749Z,3.10
2017-11-19T23:41:43.515Z,2.00
2017-11-19T23:44:11.261Z,2.60
2017-11-19T23:46:39.831Z,2.33
2017-11-19T23:49:07.582Z,2.33
2017-11-19T23:51:35.328Z,2.42
2017-11-19T23:54:03.127Z,2.37
2017-11-19T23:56:30.880Z,2.33
2017-11-19T23:58:58.683Z,2.58
